WetterOnline ( https://www.wetteronline.ch )

Wetter aktuell Frankfurt am Main

Aktuelles Wetter: Offenbach (119m)

6-stündlich | Neueste Meldungen
Ortszeit Temperatur Wetter
Mi, 17.07. 8:00 14.4° C wolkig
Mi, 17.07. 2:00 14.6° C wolkig
Di, 16.07. 20:00 23.0° C wolkig
Di, 16.07. 14:00 21.5° C leicht bewölkt
Di, 16.07. 8:00 13.6° C wolkenlos
Di, 16.07. 2:00 11.5° C fast wolkenlos
Mo, 15.07. 20:00 19.1° C bewölkt
Mo, 15.07. 14:00 19.8° C bedeckt
Ortszeit Temperatur Wetter
Mi, 17.07. 8:00 14.4° C wolkig
Mi, 17.07. 7:50 14.4° C wolkig
Mi, 17.07. 7:40 14.2° C leicht bewölkt
Mi, 17.07. 7:30 13.8° C leicht bewölkt
Mi, 17.07. 7:20 13.8° C leicht bewölkt
Mi, 17.07. 7:10 13.7° C wolkig
Mi, 17.07. 7:00 13.2° C wolkig
Mi, 17.07. 6:30 12.6° C leicht bewölkt
Mi, 17.07. 6:00 12.4° C wolkig
Mi, 17.07. 5:30 12.3° C wolkig
Mi, 17.07. 5:00 11.6° C wolkig
Ortszeit Relative Feuchte Sichtweite
Mi, 17.07. 8:00 81% 18 km
Mi, 17.07. 2:00 83% 30 km
Di, 16.07. 20:00 45% 40 km
Di, 16.07. 14:00 48% 45 km
Di, 16.07. 8:00 78% 17 km
Di, 16.07. 2:00 85% 26 km
Mo, 15.07. 20:00 59% 50 km
Mo, 15.07. 14:00 53% 65 km
Ortszeit Relative Feuchte Sichtweite
Mi, 17.07. 8:00 81% 18 km
Mi, 17.07. 7:50 81% -
Mi, 17.07. 7:40 81% -
Mi, 17.07. 7:30 83% 14 km
Mi, 17.07. 7:20 83% -
Mi, 17.07. 7:10 83% -
Mi, 17.07. 7:00 85% 13 km
Mi, 17.07. 6:30 89% 13 km
Mi, 17.07. 6:00 91% 12 km
Mi, 17.07. 5:30 92% 13 km
Mi, 17.07. 5:00 94% 11 km
Ortszeit Niederschlagsmenge Niederschlagsart
Mi, 17.07. 8:00 0.0 l/m2 in 12 Std. -
Mi, 17.07. 2:00 0.0 l/m2 in 6 Std. -
Di, 16.07. 20:00 0.0 l/m2 in 12 Std. -
Di, 16.07. 14:00 0.0 l/m2 in 6 Std. -
Di, 16.07. 8:00 0.0 l/m2 in 12 Std. -
Di, 16.07. 2:00 0.0 l/m2 in 6 Std. -
Mo, 15.07. 20:00 0.0 l/m2 in 12 Std. -
Mo, 15.07. 14:00 0.0 l/m2 in 6 Std. -
Ortszeit Niederschlagsmenge Niederschlagsart
Mi, 17.07. 8:00 0.0 l/m2 in 1 Std. -
Mi, 17.07. 7:50 keine Meldung -
Mi, 17.07. 7:40 keine Meldung -
Mi, 17.07. 7:30 0.0 l/m2 in 1 Std. -
Mi, 17.07. 7:20 keine Meldung -
Mi, 17.07. 7:10 keine Meldung -
Mi, 17.07. 7:00 0.0 l/m2 in 1 Std. -
Mi, 17.07. 6:30 0.0 l/m2 in 1 Std. -
Mi, 17.07. 6:00 0.0 l/m2 in 1 Std. -
Mi, 17.07. 5:30 0.0 l/m2 in 1 Std. -
Mi, 17.07. 5:00 0.0 l/m2 in 1 Std. -
Ortszeit Stärke Spitze Richtung
km/h Bft. km/h Grad Sektor
Mi, 17.07. 8:00 7 2 14 10° N
Mi, 17.07. 2:00 9 2 22 360° N
Di, 16.07. 20:00 7 2 22 330° NW
Di, 16.07. 14:00 7 2 19 270° W
Di, 16.07. 8:00 0 0 7 - -
Di, 16.07. 2:00 4 1 29 30° NO
Mo, 15.07. 20:00 9 2 26 340° N
Mo, 15.07. 14:00 11 2 25 30° NO
Ortszeit Stärke Spitze Richtung
km/h Bft. km/h Grad Sektor
Mi, 17.07. 8:00 7 2 14 10° N
Mi, 17.07. 7:50 7 2 - 10° N
Mi, 17.07. 7:40 9 2 - 20° N
Mi, 17.07. 7:30 7 2 14 20° N
Mi, 17.07. 7:20 7 2 - 20° N
Mi, 17.07. 7:10 6 1 - 20° N
Mi, 17.07. 7:00 7 2 14 10° N
Mi, 17.07. 6:30 6 1 13 360° N
Mi, 17.07. 6:00 6 1 11 10° N
Mi, 17.07. 5:30 6 1 7 10° N
Mi, 17.07. 5:00 4 1 11 20° N
Ortszeit Untergrenze Bedeckung Gattung
total tief tief mittel hoch
Mi, 17.07. 8:00 6900 m 7/8 2/8 - - -
Mi, 17.07. 2:00 7800 m 7/8 0/8 - - -
Di, 16.07. 20:00 9000 m 8/8 0/8 - - -
Di, 16.07. 14:00 9000 m 7/8 0/8 - - -
Di, 16.07. 8:00 - 0/8 0/8 - - -
Di, 16.07. 2:00 1050 m 1/8 1/8 - - -
Mo, 15.07. 20:00 1200 m 8/8 5/8 - - -
Mo, 15.07. 14:00 1230 m 8/8 8/8 - - -
Ortszeit Bedeckungsgrad in Achtel und Wolkenuntergrenze
Mi, 17.07. 8:00 2(6900m) 7(8700m) 7(9000m)
Mi, 17.07. 7:50 2(6900m) 7(8700m) 7(9000m)
Mi, 17.07. 7:40 6(7800m) 6(9000m) 6(9000m)
Mi, 17.07. 7:30 2(8100m) 4(10500m) 6(9000m)
Mi, 17.07. 7:20 2(8100m) 4(10500m)
Mi, 17.07. 7:10 2(7200m) 6(9000m) 7(10500m)
Mi, 17.07. 7:00 3(7200m) 7(9000m) 7(10500m)
Mi, 17.07. 6:30 4(9000m) 6(10500m)
Mi, 17.07. 6:00 1(7800m) 7(10500m)
Mi, 17.07. 5:30 8(10500m) 2(9000m) 7(10500m)
Mi, 17.07. 5:00 8(10500m)
Ortszeit Luftdruck NN (hPa) Tendenz (hPa in 3 Std.)
Mi, 17.07. 8:00 1016 - 0,2
Mi, 17.07. 2:00 1017 + 0,3
Di, 16.07. 20:00 1016 - 0,7
Di, 16.07. 14:00 1017 - 0,9
Di, 16.07. 8:00 1019 + 0,4
Di, 16.07. 2:00 1019 + 0,3
Mo, 15.07. 20:00 1017 - 0,1
Mo, 15.07. 14:00 1018 - 0,3
Ortszeit Luftdruck NN (hPa) Tendenz (hPa in 3 Std.)
Mi, 17.07. 8:00 1016 - 0,2
Mi, 17.07. 7:50 1016 keine Meldung
Mi, 17.07. 7:40 1016 keine Meldung
Mi, 17.07. 7:30 1016 - 0,2
Mi, 17.07. 7:20 1016 keine Meldung
Mi, 17.07. 7:10 1016 keine Meldung
Mi, 17.07. 7:00 1016 - 0,3
Mi, 17.07. 6:30 1016 - 0,4
Mi, 17.07. 6:00 1016 - 0,8
Mi, 17.07. 5:30 1016 - 0,9
Mi, 17.07. 5:00 1016 - 0,4
Ortszeit Schneehöhe (cm)
Mi, 17.07. 8:00 -
Mi, 17.07. 2:00 -
Di, 16.07. 20:00 -
Di, 16.07. 14:00 -
Di, 16.07. 8:00 -
Di, 16.07. 2:00 -
Mo, 15.07. 20:00 -
Mo, 15.07. 14:00 -
Ortszeit Schneehöhe (cm)
Mi, 17.07. 8:00 -
Mi, 17.07. 7:50 -
Mi, 17.07. 7:40 -
Mi, 17.07. 7:30 -
Mi, 17.07. 7:20 -
Mi, 17.07. 7:10 -
Mi, 17.07. 7:00 -
Mi, 17.07. 6:30 -
Mi, 17.07. 6:00 -
Mi, 17.07. 5:30 -
Mi, 17.07. 5:00 -
Link zu dieser Seite / Seite empfehlen

Das Wetter in ...